Time;durP1;ratioP1;P1;durP2;ratioP2;P2;SDS_P1;SDS_P2;PMS_P1;PMS_P2;Temp;Humidity;BMP_temperature;BMP_pressure;BME280_temperature;BME280_humidity;BME280_pressure;Samples;Min_cycle;Max_cycle;Signal;HPM_P1;HPM_P2
2022/01/19 00:00:29;;;;;;;;;;;4.50;99.90;;;;;;5114199;28;20442;-87
2022/01/19 00:02:56;;;;;;;;;;;4.60;99.90;;;;;;5115132;28;19959;-87
2022/01/19 00:05:23;;;;;;;;;;;4.70;99.90;;;;;;5114731;28;19977;-87
2022/01/19 00:07:50;;;;;;;;;;;4.60;99.90;;;;;;5114488;28;19927;-87
2022/01/19 00:10:20;;;;;;;;;;;4.70;99.90;;;;;;5114225;28;20365;-87
2022/01/19 00:12:47;;;;;;;;;;;4.60;99.90;;;;;;5114603;28;20301;-87
2022/01/19 00:15:14;;;;;;;;;;;4.50;99.90;;;;;;5114354;28;20377;-87
2022/01/19 00:17:41;;;;;;;;;;;4.50;99.90;;;;;;5114230;28;20362;-87
2022/01/19 00:20:08;;;;;;;;;;;4.40;99.90;;;;;;5114369;28;19927;-87
2022/01/19 00:22:37;;;;;;;;;;;4.40;99.90;;;;;;5114702;28;19984;-86
2022/01/19 00:25:05;;;;;;;;;;;4.50;99.90;;;;;;5115356;28;19930;-86
2022/01/19 00:27:33;;;;;;;;;;;4.60;99.90;;;;;;5114915;28;19931;-86
2022/01/19 00:30:00;;;;;;;;;;;4.40;99.90;;;;;;5115093;28;19923;-86
2022/01/19 00:32:28;;;;;;;;;;;4.40;99.90;;;;;;5114723;28;19924;-86
2022/01/19 00:34:55;;;;;;;;;;;4.40;99.90;;;;;;5114601;28;19923;-87
2022/01/19 00:37:22;;;;;;;;;;;4.50;99.90;;;;;;5114866;28;19983;-87
2022/01/19 00:39:49;;;;;;;;;;;4.60;99.90;;;;;;5114893;28;19967;-86
2022/01/19 00:42:16;;;;;;;;;;;4.60;99.90;;;;;;5115027;28;19924;-86
2022/01/19 00:44:44;;;;;;;;;;;4.70;99.90;;;;;;5115079;28;19977;-87
2022/01/19 00:47:10;;;;;;;;;;;4.70;99.90;;;;;;5114576;28;19923;-88
2022/01/19 00:49:37;;;;;;;;;;;5.00;99.90;;;;;;5114847;28;19969;-86
2022/01/19 00:52:04;;;;;;;;;;;4.80;99.90;;;;;;5114537;28;19971;-86
2022/01/19 00:54:31;;;;;;;;;;;4.80;99.90;;;;;;5114663;28;19966;-86
2022/01/19 00:56:58;;;;;;;;;;;4.80;99.90;;;;;;5114989;28;19971;-88
2022/01/19 00:59:24;;;;;;;;;;;4.70;99.90;;;;;;5114582;28;19924;-86
2022/01/19 01:01:53;;;;;;;;;;;4.90;99.90;;;;;;5114497;28;19975;-86
2022/01/19 01:04:19;;;;;;;;;;;4.90;99.90;;;;;;5114512;28;20020;-86
2022/01/19 01:06:46;;;;;;;;;;;4.90;99.90;;;;;;5114498;28;19981;-86
2022/01/19 01:09:13;;;;;;;;;;;5.10;99.90;;;;;;5114309;28;19985;-86
2022/01/19 01:11:47;;;;;;;;;;;4.90;99.90;;;;;;5114197;28;20378;-86
2022/01/19 01:17:12;;;;;;;;;;;5.00;99.90;;;;;;5114214;28;19926;-88
2022/01/19 01:19:39;;;;;;;;;;;5.00;99.90;;;;;;5114618;28;19968;-86
2022/01/19 01:22:06;;;;;;;;;;;5.30;99.90;;;;;;5114491;28;19978;-87
2022/01/19 01:24:33;;;;;;;;;;;5.10;99.90;;;;;;5114158;28;20365;-87
2022/01/19 01:26:59;;;;;;;;;;;5.10;99.90;;;;;;5117432;28;20396;-85
2022/01/19 01:29:26;;;;;;;;;;;5.00;99.90;;;;;;5117984;28;19967;-88
2022/01/19 01:31:53;;;;;;;;;;;4.80;99.90;;;;;;5118093;28;19971;-86
2022/01/19 01:34:21;;;;;;;;;;;5.10;99.90;;;;;;5117449;28;19967;-86
2022/01/19 01:36:48;;;;;;;;;;;5.00;99.90;;;;;;5117995;28;19967;-86
2022/01/19 01:39:14;;;;;;;;;;;5.00;99.90;;;;;;5117747;28;20374;-86
2022/01/19 01:41:41;;;;;;;;;;;5.00;99.90;;;;;;5117799;28;19927;-87
2022/01/19 01:44:08;;;;;;;;;;;5.10;99.90;;;;;;5117831;28;19928;-86
2022/01/19 01:46:43;;;;;;;;;;;5.00;99.90;;;;;;5117524;28;19924;-87
2022/01/19 01:49:16;;;;;;;;;;;5.10;99.90;;;;;;5113802;28;19958;-87
2022/01/19 01:54:29;;;;;;;;;;;5.00;99.90;;;;;;5118355;28;19965;-85
2022/01/19 01:56:56;;;;;;;;;;;5.00;99.90;;;;;;5119200;28;19977;-87
2022/01/19 01:59:23;;;;;;;;;;;4.90;99.90;;;;;;5119109;28;20411;-86
2022/01/19 02:01:50;;;;;;;;;;;5.00;99.90;;;;;;5118679;28;19978;-87
2022/01/19 02:04:17;;;;;;;;;;;5.00;99.90;;;;;;5116981;28;19963;-86
2022/01/19 02:07:06;;;;;;;;;;;4.90;99.90;;;;;;5116917;28;20442;-86
2022/01/19 02:09:37;;;;;;;;;;;4.90;99.90;;;;;;5116791;28;19969;-86
2022/01/19 02:23:09;;;;;;;;;;;5.00;99.90;;;;;;5095916;28;20492;-87
2022/01/19 02:25:41;;;;;;;;;;;5.00;99.90;;;;;;5096290;28;19924;-87
2022/01/19 02:36:50;;;;;;;;;;;5.20;99.90;;;;;;5096113;28;19931;-89
2022/01/19 02:42:04;;;;;;;;;;;5.30;99.90;;;;;;5096340;28;19931;-86
2022/01/19 02:46:32;;;;;;;;;;;5.10;99.90;;;;;;5096294;28;19935;-86
2022/01/19 02:50:06;;;;;;;;;;;5.30;99.90;;;;;;5096130;28;20054;-88
2022/01/19 02:52:35;;;;;;;;;;;5.30;99.90;;;;;;5095862;28;19928;-87
2022/01/19 02:55:01;;;;;;;;;;;5.20;99.90;;;;;;5095841;28;19931;-86
2022/01/19 02:57:28;;;;;;;;;;;5.20;99.90;;;;;;5095983;28;19928;-87
2022/01/19 03:11:01;;;;;;;;;;;4.90;99.90;;;;;;5070283;28;20334;-86
2022/01/19 03:13:29;;;;;;;;;;;4.90;99.90;;;;;;5095600;28;19959;-87
2022/01/19 03:15:55;;;;;;;;;;;5.00;99.90;;;;;;5095585;28;20015;-88
2022/01/19 03:18:22;;;;;;;;;;;5.00;99.90;;;;;;5095338;28;19950;-88
2022/01/19 03:20:49;;;;;;;;;;;5.00;99.90;;;;;;5095164;28;19924;-87
2022/01/19 03:23:20;;;;;;;;;;;5.30;99.90;;;;;;5095565;28;19924;-87
2022/01/19 03:25:47;;;;;;;;;;;5.20;99.90;;;;;;5095539;28;19993;-86
2022/01/19 03:28:14;;;;;;;;;;;5.10;99.90;;;;;;5094885;28;19924;-87
2022/01/19 03:30:41;;;;;;;;;;;5.20;99.90;;;;;;5094951;28;19924;-86
2022/01/19 03:33:08;;;;;;;;;;;5.20;99.90;;;;;;5095182;28;20405;-87
2022/01/19 03:35:34;;;;;;;;;;;5.20;99.90;;;;;;5095266;28;19924;-87
2022/01/19 03:38:01;;;;;;;;;;;5.20;99.90;;;;;;5095430;28;19977;-86
2022/01/19 03:40:30;;;;;;;;;;;5.10;99.90;;;;;;5094980;28;19924;-86
2022/01/19 03:42:56;;;;;;;;;;;5.10;99.90;;;;;;5095145;28;19924;-86
2022/01/19 03:45:23;;;;;;;;;;;5.10;99.90;;;;;;5094707;28;19967;-86
2022/01/19 03:47:55;;;;;;;;;;;5.00;99.90;;;;;;5094451;28;19924;-86
2022/01/19 03:50:22;;;;;;;;;;;5.10;99.90;;;;;;5094687;28;19924;-86
2022/01/19 03:52:49;;;;;;;;;;;5.10;99.90;;;;;;5094541;28;20399;-87
2022/01/19 03:55:15;;;;;;;;;;;5.20;99.90;;;;;;5094678;28;19963;-87
2022/01/19 03:57:43;;;;;;;;;;;5.30;99.90;;;;;;5100195;28;19978;-88
2022/01/19 04:00:11;;;;;;;;;;;5.40;99.90;;;;;;5116358;28;19984;-88
2022/01/19 04:02:38;;;;;;;;;;;5.40;99.90;;;;;;5109519;28;19923;-86
2022/01/19 04:05:10;;;;;;;;;;;5.40;99.90;;;;;;5118806;28;20320;-87
2022/01/19 04:07:37;;;;;;;;;;;5.40;99.90;;;;;;5116323;28;19928;-86
2022/01/19 04:10:04;;;;;;;;;;;5.60;99.90;;;;;;5114910;28;19955;-87
2022/01/19 04:12:44;;;;;;;;;;;5.30;99.90;;;;;;5114533;28;19923;-86
2022/01/19 04:15:14;;;;;;;;;;;5.50;99.90;;;;;;5114542;28;19931;-88
2022/01/19 04:17:46;;;;;;;;;;;5.20;99.90;;;;;;5114901;28;19966;-87
2022/01/19 04:20:13;;;;;;;;;;;5.20;99.90;;;;;;5114885;28;19923;-87
2022/01/19 04:22:40;;;;;;;;;;;5.20;99.90;;;;;;5114540;28;19977;-88
2022/01/19 04:25:07;;;;;;;;;;;5.20;99.90;;;;;;5114822;28;19924;-86
2022/01/19 04:27:34;;;;;;;;;;;5.30;99.90;;;;;;5114303;28;20312;-87
2022/01/19 04:30:06;;;;;;;;;;;5.50;99.90;;;;;;5114826;28;19955;-85
2022/01/19 04:32:41;;;;;;;;;;;5.60;99.90;;;;;;5114450;28;19977;-86
2022/01/19 04:35:10;;;;;;;;;;;5.70;99.90;;;;;;5114326;28;20309;-87
2022/01/19 04:37:50;;;;;;;;;;;5.60;99.90;;;;;;5114602;28;19966;-87
2022/01/19 04:46:04;;;;;;;;;;;5.60;99.90;;;;;;5114077;28;19935;-87
2022/01/19 04:54:36;;;;;;;;;;;5.60;99.90;;;;;;5114339;28;20010;-88
2022/01/19 05:02:56;;;;;;;;;;;5.90;99.90;;;;;;5118116;28;19971;-87
2022/01/19 05:05:28;;;;;;;;;;;5.90;99.90;;;;;;5118311;28;19927;-88
2022/01/19 05:08:00;;;;;;;;;;;5.90;99.90;;;;;;5117754;28;19924;-87
2022/01/19 05:13:26;;;;;;;;;;;5.90;99.90;;;;;;5117715;28;20003;-89
2022/01/19 05:15:53;;;;;;;;;;;5.80;99.90;;;;;;5117756;28;20442;-87
2022/01/19 05:18:20;;;;;;;;;;;5.90;99.90;;;;;;5117801;28;19977;-86
2022/01/19 05:20:48;;;;;;;;;;;6.20;99.90;;;;;;5117920;28;19923;-87
2022/01/19 05:23:16;;;;;;;;;;;6.10;99.90;;;;;;5117437;28;19932;-89
2022/01/19 05:25:43;;;;;;;;;;;6.10;99.90;;;;;;5117663;28;20023;-88
2022/01/19 05:28:10;;;;;;;;;;;6.00;99.90;;;;;;5117505;28;20080;-87
2022/01/19 05:30:37;;;;;;;;;;;6.00;99.90;;;;;;5117562;28;20011;-87
2022/01/19 05:33:04;;;;;;;;;;;6.10;99.90;;;;;;5117465;28;19978;-87
2022/01/19 05:35:31;;;;;;;;;;;6.10;99.90;;;;;;5117291;28;19970;-86
2022/01/19 05:37:59;;;;;;;;;;;6.20;99.90;;;;;;5117381;28;19923;-87
2022/01/19 05:40:26;;;;;;;;;;;6.20;99.90;;;;;;5117233;28;19967;-87
2022/01/19 05:42:53;;;;;;;;;;;6.20;99.90;;;;;;5117296;28;20288;-87
2022/01/19 05:45:20;;;;;;;;;;;6.20;99.90;;;;;;5117308;28;19984;-86
2022/01/19 05:47:47;;;;;;;;;;;6.20;99.90;;;;;;5117292;28;19924;-87
2022/01/19 05:50:14;;;;;;;;;;;6.30;99.90;;;;;;5117061;28;19970;-88
2022/01/19 05:52:41;;;;;;;;;;;6.30;99.90;;;;;;5116901;28;19967;-87
2022/01/19 05:55:10;;;;;;;;;;;6.30;99.90;;;;;;5116949;28;19928;-88
2022/01/19 05:57:36;;;;;;;;;;;6.40;99.90;;;;;;5103586;28;19924;-88
2022/01/19 06:00:04;;;;;;;;;;;6.40;99.90;;;;;;5096162;28;20267;-88
2022/01/19 06:02:31;;;;;;;;;;;6.40;99.90;;;;;;5096618;28;19924;-87
2022/01/19 06:04:58;;;;;;;;;;;6.40;99.90;;;;;;5097718;28;19924;-87
2022/01/19 06:07:28;;;;;;;;;;;6.50;99.90;;;;;;5097914;28;19937;-88
2022/01/19 06:10:05;;;;;;;;;;;6.60;99.90;;;;;;5100693;28;20016;-88
2022/01/19 06:12:33;;;;;;;;;;;6.50;99.90;;;;;;5117710;28;19924;-86
2022/01/19 06:15:00;;;;;;;;;;;6.60;99.90;;;;;;5117252;28;19969;-86
2022/01/19 06:17:27;;;;;;;;;;;6.60;99.90;;;;;;5117291;28;19970;-89
2022/01/19 06:19:54;;;;;;;;;;;6.60;99.90;;;;;;5116890;28;19927;-86
2022/01/19 06:22:21;;;;;;;;;;;6.60;99.90;;;;;;5117162;28;19977;-88
2022/01/19 06:24:48;;;;;;;;;;;6.70;99.90;;;;;;5117199;28;19924;-89
2022/01/19 06:27:15;;;;;;;;;;;6.70;99.90;;;;;;5116942;28;20294;-87
2022/01/19 06:29:43;;;;;;;;;;;6.80;99.90;;;;;;5117517;28;19923;-88
2022/01/19 06:32:10;;;;;;;;;;;6.20;99.90;;;;;;5117382;28;20334;-89
2022/01/19 06:34:37;;;;;;;;;;;6.80;99.90;;;;;;5117400;28;19924;-89
2022/01/19 06:37:04;;;;;;;;;;;6.80;99.90;;;;;;5117324;28;19924;-87
2022/01/19 06:39:31;;;;;;;;;;;6.60;99.90;;;;;;5117482;28;20292;-87
2022/01/19 06:41:58;;;;;;;;;;;6.70;99.90;;;;;;5116961;28;19923;-87
2022/01/19 06:44:24;;;;;;;;;;;6.70;99.90;;;;;;5116646;28;20373;-86
2022/01/19 06:46:52;;;;;;;;;;;6.70;99.90;;;;;;5116754;28;19973;-87
2022/01/19 06:49:19;;;;;;;;;;;6.60;99.90;;;;;;5116786;28;19946;-87
2022/01/19 06:51:46;;;;;;;;;;;6.70;99.90;;;;;;5116049;28;19928;-87
2022/01/19 06:54:13;;;;;;;;;;;6.60;99.90;;;;;;5116005;28;19971;-87
2022/01/19 06:56:39;;;;;;;;;;;6.60;99.90;;;;;;5116024;28;19928;-87
2022/01/19 06:59:06;;;;;;;;;;;6.60;99.90;;;;;;5116044;28;20290;-87
2022/01/19 07:01:33;;;;;;;;;;;6.00;99.90;;;;;;5115029;28;19927;-87
2022/01/19 07:04:02;;;;;;;;;;;6.50;99.90;;;;;;5115705;28;19931;-86
2022/01/19 07:06:28;;;;;;;;;;;6.60;99.90;;;;;;5115999;28;19952;-88
2022/01/19 07:08:55;;;;;;;;;;;6.70;99.90;;;;;;5116560;28;19927;-87
2022/01/19 07:11:22;;;;;;;;;;;6.60;99.90;;;;;;5112775;28;19984;-87
2022/01/19 07:13:49;;;;;;;;;;;6.50;99.90;;;;;;5110929;28;20323;-87
2022/01/19 07:16:16;;;;;;;;;;;6.60;99.90;;;;;;5101702;28;19930;-86
2022/01/19 07:18:43;;;;;;;;;;;6.70;99.90;;;;;;5114160;28;19924;-86
2022/01/19 07:21:11;;;;;;;;;;;6.60;99.90;;;;;;5100026;28;19977;-87
2022/01/19 07:23:38;;;;;;;;;;;6.60;99.90;;;;;;5101589;28;19928;-87
2022/01/19 07:26:05;;;;;;;;;;;6.60;99.90;;;;;;5101621;28;19963;-87
2022/01/19 07:28:32;;;;;;;;;;;6.70;99.90;;;;;;5103482;28;19963;-86
2022/01/19 07:30:59;;;;;;;;;;;6.70;99.90;;;;;;5106399;28;20262;-88
2022/01/19 07:33:26;;;;;;;;;;;6.70;99.90;;;;;;5103369;28;19928;-86
2022/01/19 07:35:53;;;;;;;;;;;6.70;99.90;;;;;;5102972;28;19961;-87
2022/01/19 07:38:22;;;;;;;;;;;6.70;99.90;;;;;;5097312;28;19931;-87
2022/01/19 07:40:48;;;;;;;;;;;6.80;99.90;;;;;;5107013;28;20369;-88
2022/01/19 07:43:15;;;;;;;;;;;6.80;99.90;;;;;;5099479;28;19931;-87
2022/01/19 07:45:42;;;;;;;;;;;6.70;99.90;;;;;;5101382;28;19984;-87
2022/01/19 07:48:10;;;;;;;;;;;6.80;99.90;;;;;;5102681;28;20313;-89
2022/01/19 07:50:36;;;;;;;;;;;6.90;99.90;;;;;;5103182;28;19934;-89
2022/01/19 07:53:03;;;;;;;;;;;6.90;99.90;;;;;;5103183;28;19949;-88
2022/01/19 07:55:32;;;;;;;;;;;7.00;99.90;;;;;;5097575;28;19967;-88
2022/01/19 07:57:59;;;;;;;;;;;7.00;99.90;;;;;;5100589;28;19928;-85
2022/01/19 08:00:25;;;;;;;;;;;7.10;99.90;;;;;;5097406;28;20384;-88
2022/01/19 08:02:52;;;;;;;;;;;7.10;99.90;;;;;;5094821;28;19924;-88
2022/01/19 08:05:19;;;;;;;;;;;7.10;99.90;;;;;;5100862;28;19963;-86
2022/01/19 08:07:46;;;;;;;;;;;7.20;99.90;;;;;;5110812;28;19927;-88
2022/01/19 08:10:13;;;;;;;;;;;7.30;99.90;;;;;;5105829;28;19935;-87
2022/01/19 08:12:43;;;;;;;;;;;7.30;99.90;;;;;;5100164;28;19928;-85
2022/01/19 08:15:10;;;;;;;;;;;7.20;99.90;;;;;;5104067;28;19934;-89
2022/01/19 08:17:37;;;;;;;;;;;7.40;99.90;;;;;;5103488;28;19923;-87
2022/01/19 08:20:04;;;;;;;;;;;7.60;99.90;;;;;;5074348;28;21454;-86
2022/01/19 08:22:31;;;;;;;;;;;7.20;99.90;;;;;;5075329;28;19968;-89
2022/01/19 08:24:58;;;;;;;;;;;8.20;99.90;;;;;;5111545;28;19932;-87
2022/01/19 08:27:25;;;;;;;;;;;8.40;99.90;;;;;;5100294;28;20198;-87
2022/01/19 08:29:53;;;;;;;;;;;8.50;99.90;;;;;;5093019;28;20374;-87
2022/01/19 08:32:20;;;;;;;;;;;8.60;99.90;;;;;;5096396;28;20412;-86
2022/01/19 08:34:46;;;;;;;;;;;9.10;99.90;;;;;;5104684;27;20268;-88
2022/01/19 08:37:15;;;;;;;;;;;9.40;99.90;;;;;;5116483;28;20332;-87
2022/01/19 08:39:42;;;;;;;;;;;8.90;99.90;;;;;;5113523;28;20301;-87
2022/01/19 08:42:09;;;;;;;;;;;8.80;99.90;;;;;;5108946;28;19924;-88
2022/01/19 08:44:36;;;;;;;;;;;8.80;99.90;;;;;;5111936;27;19977;-92
2022/01/19 08:47:05;;;;;;;;;;;8.70;99.90;;;;;;5104663;28;19929;-88
2022/01/19 08:50:10;;;;;;;;;;;;;;;;;;;;;
2022/01/19 08:52:40;;;;;;;;;;;9.60;99.90;;;;;;5073274;27;20034;-87
2022/01/19 08:55:08;;;;;;;;;;;9.10;99.90;;;;;;5107840;28;19923;-88
2022/01/19 08:57:35;;;;;;;;;;;10.50;99.90;;;;;;5095498;28;20353;-87
2022/01/19 09:00:02;;;;;;;;;;;8.60;99.90;;;;;;5075875;28;19932;-88
2022/01/19 09:02:30;;;;;;;;;;;6.40;99.90;;;;;;5114159;27;20381;-87
2022/01/19 09:04:57;;;;;;;;;;;8.50;99.90;;;;;;5108634;28;19932;-90
2022/01/19 09:07:23;;;;;;;;;;;8.50;99.90;;;;;;5113607;28;19923;-87
2022/01/19 09:09:50;;;;;;;;;;;8.50;99.90;;;;;;5117632;28;19960;-88
2022/01/19 09:12:17;;;;;;;;;;;8.40;99.90;;;;;;5096477;28;19983;-87
2022/01/19 09:14:44;;;;;;;;;;;8.50;99.90;;;;;;5097963;28;20434;-88
2022/01/19 09:17:11;;;;;;;;;;;8.40;99.90;;;;;;5100356;28;19924;-89
2022/01/19 09:19:40;;;;;;;;;;;8.40;99.90;;;;;;5105098;27;19932;-88
2022/01/19 09:22:07;;;;;;;;;;;7.10;99.90;;;;;;5102831;28;20196;-87
2022/01/19 09:24:35;;;;;;;;;;;8.30;99.90;;;;;;5101887;28;19923;-86
2022/01/19 09:27:02;;;;;;;;;;;8.20;99.90;;;;;;5096966;27;19924;-88
2022/01/19 09:29:30;;;;;;;;;;;8.20;99.90;;;;;;5107591;27;20365;-88
2022/01/19 09:32:00;;;;;;;;;;;8.20;99.90;;;;;;5104015;28;19928;-88
2022/01/19 09:34:28;;;;;;;;;;;8.10;99.90;;;;;;5095602;27;20369;-88
2022/01/19 09:36:56;;;;;;;;;;;8.20;99.90;;;;;;5105170;28;19931;-88
2022/01/19 09:39:24;;;;;;;;;;;8.10;99.90;;;;;;5114119;28;19924;-89
2022/01/19 09:41:51;;;;;;;;;;;8.70;99.90;;;;;;5102854;28;19927;-90
2022/01/19 09:44:18;;;;;;;;;;;8.10;99.90;;;;;;5106450;28;20292;-89
2022/01/19 09:46:45;;;;;;;;;;;7.90;99.90;;;;;;5105704;28;20427;-88
2022/01/19 09:49:12;;;;;;;;;;;8.10;99.90;;;;;;5106854;27;19923;-90
2022/01/19 09:51:40;;;;;;;;;;;8.10;99.90;;;;;;5106954;28;19954;-90
2022/01/19 09:54:08;;;;;;;;;;;8.10;99.90;;;;;;5104864;28;19972;-90
2022/01/19 09:56:35;;;;;;;;;;;9.90;99.90;;;;;;5107513;27;19923;-89
2022/01/19 09:59:03;;;;;;;;;;;8.20;99.90;;;;;;5108107;28;19924;-90
2022/01/19 10:01:30;;;;;;;;;;;8.20;99.90;;;;;;5092706;27;19924;-88
2022/01/19 10:03:57;;;;;;;;;;;8.00;99.90;;;;;;5104004;27;19973;-89
2022/01/19 10:06:24;;;;;;;;;;;8.10;99.90;;;;;;5078846;27;19927;-88
2022/01/19 10:08:52;;;;;;;;;;;8.10;99.90;;;;;;5108236;28;19939;-88
2022/01/19 10:11:27;;;;;;;;;;;8.10;99.90;;;;;;5107940;27;19924;-86
2022/01/19 10:17:01;;;;;;;;;;;8.20;99.90;;;;;;5072836;28;20035;-89
2022/01/19 10:19:28;;;;;;;;;;;8.20;99.90;;;;;;5092924;28;19924;-89
2022/01/19 10:21:59;;;;;;;;;;;8.20;99.90;;;;;;5100918;28;20064;-90
2022/01/19 10:24:50;;;;;;;;;;;8.20;99.90;;;;;;5106094;28;20000;-88
2022/01/19 10:27:23;;;;;;;;;;;8.40;99.90;;;;;;5104868;27;19932;-87
2022/01/19 10:29:50;;;;;;;;;;;8.30;99.90;;;;;;5105487;28;19931;-91
2022/01/19 10:32:17;;;;;;;;;;;8.30;99.90;;;;;;5101562;28;19932;-90
2022/01/19 10:34:44;;;;;;;;;;;8.70;99.90;;;;;;5102270;28;19924;-86
2022/01/19 10:37:12;;;;;;;;;;;8.40;99.90;;;;;;5085712;28;19969;-88
2022/01/19 10:39:41;;;;;;;;;;;8.40;99.90;;;;;;5089746;28;20305;-89
2022/01/19 10:42:09;;;;;;;;;;;8.50;99.90;;;;;;5079021;28;19931;-88
2022/01/19 10:44:38;;;;;;;;;;;8.30;99.90;;;;;;5099548;28;19959;-86
2022/01/19 10:47:11;;;;;;;;;;;8.20;99.90;;;;;;5100367;28;19947;-89
2022/01/19 10:49:48;;;;;;;;;;;8.40;99.90;;;;;;5100335;28;19924;-87
2022/01/19 10:52:31;;;;;;;;;;;8.30;99.90;;;;;;5103856;28;20014;-89
2022/01/19 10:54:58;;;;;;;;;;;8.30;99.90;;;;;;5104823;28;19961;-88
2022/01/19 10:57:25;;;;;;;;;;;8.30;99.90;;;;;;5102777;28;19924;-89
2022/01/19 11:00:09;;;;;;;;;;;8.30;99.90;;;;;;5104294;28;20013;-89
2022/01/19 11:02:36;;;;;;;;;;;8.40;99.90;;;;;;5059505;28;19935;-87
2022/01/19 11:05:03;;;;;;;;;;;8.40;99.90;;;;;;5062780;28;19982;-89
2022/01/19 11:07:30;;;;;;;;;;;8.40;99.90;;;;;;5058785;28;19952;-87
2022/01/19 11:10:00;;;;;;;;;;;8.50;99.90;;;;;;5055742;28;19925;-88
2022/01/19 11:12:33;;;;;;;;;;;8.50;99.90;;;;;;5061103;28;19925;-88
2022/01/19 11:15:02;;;;;;;;;;;8.70;99.90;;;;;;5065152;28;19932;-87
2022/01/19 11:17:29;;;;;;;;;;;8.50;99.90;;;;;;5065520;28;19924;-87
2022/01/19 11:19:56;;;;;;;;;;;8.90;99.90;;;;;;5060222;28;19928;-88
2022/01/19 11:22:27;;;;;;;;;;;8.50;99.90;;;;;;5068398;28;19937;-87
2022/01/19 11:25:05;;;;;;;;;;;8.50;99.90;;;;;;5048084;28;19928;-87
2022/01/19 11:27:36;;;;;;;;;;;8.60;99.90;;;;;;5056405;28;19972;-88
2022/01/19 11:30:16;;;;;;;;;;;8.70;99.90;;;;;;5065251;28;19977;-89
2022/01/19 11:32:44;;;;;;;;;;;8.60;99.90;;;;;;5036906;28;19937;-90
2022/01/19 11:35:31;;;;;;;;;;;9.30;99.90;;;;;;5047603;28;20028;-88
2022/01/19 11:37:58;;;;;;;;;;;8.60;99.90;;;;;;5047205;28;19925;-87
2022/01/19 11:40:34;;;;;;;;;;;8.70;99.90;;;;;;5037101;28;20860;-86
2022/01/19 11:43:15;;;;;;;;;;;8.80;99.90;;;;;;5061129;28;20364;-87
2022/01/19 11:45:43;;;;;;;;;;;8.70;99.90;;;;;;5063000;28;19978;-86
2022/01/19 11:48:14;;;;;;;;;;;8.90;99.90;;;;;;5059480;28;19932;-87
2022/01/19 11:50:41;;;;;;;;;;;8.90;99.90;;;;;;5063118;28;19928;-88
2022/01/19 11:53:10;;;;;;;;;;;9.00;99.90;;;;;;5056609;28;19985;-87
2022/01/19 11:55:38;;;;;;;;;;;8.90;99.90;;;;;;5062991;28;19937;-87
2022/01/19 11:58:12;;;;;;;;;;;9.10;99.90;;;;;;5056948;28;20382;-87
2022/01/19 12:00:39;;;;;;;;;;;8.90;99.90;;;;;;5064027;28;19970;-87
2022/01/19 12:03:18;;;;;;;;;;;8.80;99.90;;;;;;5093723;28;19963;-87
2022/01/19 12:05:45;;;;;;;;;;;8.90;99.90;;;;;;5086056;28;21745;-87
2022/01/19 12:08:20;;;;;;;;;;;9.10;99.90;;;;;;5080599;28;19931;-87
2022/01/19 12:10:48;;;;;;;;;;;9.00;99.90;;;;;;5099726;28;19943;-87
2022/01/19 12:13:30;;;;;;;;;;;9.00;99.90;;;;;;5094214;28;19951;-88
2022/01/19 12:16:01;;;;;;;;;;;8.90;99.90;;;;;;5100692;28;19924;-85
2022/01/19 12:18:41;;;;;;;;;;;8.90;99.90;;;;;;5100592;28;20051;-87
2022/01/19 12:21:09;;;;;;;;;;;11.10;99.90;;;;;;5092682;28;19932;-88
2022/01/19 12:23:39;;;;;;;;;;;8.80;99.90;;;;;;5101328;28;20113;-88
2022/01/19 12:26:07;;;;;;;;;;;8.90;99.90;;;;;;5099966;28;20030;-87
2022/01/19 12:28:47;;;;;;;;;;;9.20;99.90;;;;;;5089852;28;20617;-88
2022/01/19 12:31:33;;;;;;;;;;;8.90;99.90;;;;;;5112654;28;19935;-87
2022/01/19 12:34:18;;;;;;;;;;;9.00;99.90;;;;;;5109809;28;19931;-87
2022/01/19 12:36:47;;;;;;;;;;;8.90;99.90;;;;;;5100156;28;19977;-88
2022/01/19 12:39:32;;;;;;;;;;;8.80;99.90;;;;;;5111114;28;19947;-88
2022/01/19 12:42:00;;;;;;;;;;;8.80;99.90;;;;;;5107555;28;19924;-89
2022/01/19 12:44:43;;;;;;;;;;;9.20;99.90;;;;;;5108353;28;19936;-88
2022/01/19 12:47:31;;;;;;;;;;;9.70;99.90;;;;;;5110303;28;19923;-90
2022/01/19 12:50:20;;;;;;;;;;;9.20;99.90;;;;;;5068140;28;19924;-87
2022/01/19 12:52:48;;;;;;;;;;;8.60;99.90;;;;;;5108348;28;19932;-88
2022/01/19 12:55:16;;;;;;;;;;;9.20;99.90;;;;;;5110439;28;19927;-87
2022/01/19 12:57:43;;;;;;;;;;;7.00;99.90;;;;;;5104744;28;19930;-89
2022/01/19 13:00:12;;;;;;;;;;;8.90;99.90;;;;;;5110362;28;19923;-88
2022/01/19 13:02:39;;;;;;;;;;;8.90;99.90;;;;;;5107386;28;19943;-86
2022/01/19 13:05:08;;;;;;;;;;;8.80;99.90;;;;;;5108236;28;19946;-89
2022/01/19 13:07:38;;;;;;;;;;;8.90;99.90;;;;;;5110884;28;19931;-88
2022/01/19 13:10:17;;;;;;;;;;;8.90;99.90;;;;;;5109987;28;19934;-84
2022/01/19 13:12:50;;;;;;;;;;;8.90;99.90;;;;;;5112903;28;20054;-88
2022/01/19 13:15:18;;;;;;;;;;;9.30;99.90;;;;;;5109382;28;20393;-88
2022/01/19 13:17:45;;;;;;;;;;;8.90;99.90;;;;;;5109887;28;19924;-86
2022/01/19 13:20:15;;;;;;;;;;;9.00;99.90;;;;;;5109736;28;19969;-86
2022/01/19 13:22:46;;;;;;;;;;;8.90;99.90;;;;;;5114051;28;19924;-86
2022/01/19 13:25:17;;;;;;;;;;;8.90;99.90;;;;;;5114513;28;20000;-86
2022/01/19 13:27:44;;;;;;;;;;;8.80;99.90;;;;;;5113858;28;19927;-87
2022/01/19 13:30:14;;;;;;;;;;;8.90;99.90;;;;;;5112752;28;20288;-88
2022/01/19 13:32:41;;;;;;;;;;;8.80;99.90;;;;;;5102301;28;19928;-87
2022/01/19 13:35:08;;;;;;;;;;;8.80;99.90;;;;;;5103041;28;19992;-87
2022/01/19 13:37:38;;;;;;;;;;;8.80;99.90;;;;;;5102598;28;20380;-87
2022/01/19 13:40:07;;;;;;;;;;;8.70;99.90;;;;;;5076296;28;20795;-87
2022/01/19 13:42:39;;;;;;;;;;;8.70;99.90;;;;;;5107154;28;20014;-89
2022/01/19 13:45:10;;;;;;;;;;;8.60;99.90;;;;;;5100115;28;20663;-89
2022/01/19 13:48:05;;;;;;;;;;;8.60;99.90;;;;;;5093652;27;19934;-88
2022/01/19 13:50:32;;;;;;;;;;;8.60;99.90;;;;;;5095805;28;19924;-87
2022/01/19 13:53:01;;;;;;;;;;;8.60;99.90;;;;;;5103066;28;20037;-87
2022/01/19 13:55:28;;;;;;;;;;;8.50;99.90;;;;;;5100754;28;20219;-87
2022/01/19 13:58:04;;;;;;;;;;;8.50;99.90;;;;;;5094933;28;19924;-88
2022/01/19 14:00:31;;;;;;;;;;;8.50;99.90;;;;;;5100674;28;19925;-87
2022/01/19 14:03:01;;;;;;;;;;;8.70;99.90;;;;;;5107738;28;19928;-88
2022/01/19 14:05:35;;;;;;;;;;;8.50;99.90;;;;;;5100349;28;20439;-87
2022/01/19 14:08:03;;;;;;;;;;;8.50;99.90;;;;;;5103228;28;19931;-88
2022/01/19 14:10:38;;;;;;;;;;;8.80;99.90;;;;;;5104650;28;19924;-89
2022/01/19 14:13:20;;;;;;;;;;;8.60;99.90;;;;;;5102360;28;19924;-88
2022/01/19 14:15:47;;;;;;;;;;;8.50;99.90;;;;;;5107330;28;20392;-87
2022/01/19 14:18:14;;;;;;;;;;;8.60;99.90;;;;;;5101418;28;20500;-87
2022/01/19 14:20:41;;;;;;;;;;;8.60;99.90;;;;;;5084813;28;19924;-88
2022/01/19 14:23:14;;;;;;;;;;;8.90;99.90;;;;;;5097627;28;19971;-87
2022/01/19 14:25:41;;;;;;;;;;;8.80;99.90;;;;;;5097570;28;19928;-88
2022/01/19 14:28:13;;;;;;;;;;;8.70;99.90;;;;;;5104102;28;20300;-87
2022/01/19 14:30:41;;;;;;;;;;;8.20;99.90;;;;;;5101034;28;19931;-88
2022/01/19 14:33:10;;;;;;;;;;;8.60;99.90;;;;;;5098826;28;19924;-88
2022/01/19 14:35:38;;;;;;;;;;;8.50;99.90;;;;;;5096838;28;19971;-87
2022/01/19 14:38:12;;;;;;;;;;;8.60;99.90;;;;;;5099410;27;19923;-88
2022/01/19 14:40:49;;;;;;;;;;;8.50;99.90;;;;;;5101647;27;19932;-89
2022/01/19 14:43:18;;;;;;;;;;;8.60;99.90;;;;;;5102236;27;19993;-87
2022/01/19 14:45:50;;;;;;;;;;;8.60;99.90;;;;;;5102505;28;19924;-87
2022/01/19 14:48:18;;;;;;;;;;;8.70;99.90;;;;;;5076848;28;19925;-88
2022/01/19 14:50:45;;;;;;;;;;;8.40;99.90;;;;;;5102299;28;20014;-88
2022/01/19 14:53:13;;;;;;;;;;;8.50;99.90;;;;;;5104955;28;19923;-88
2022/01/19 14:55:44;;;;;;;;;;;8.60;99.90;;;;;;5101762;27;19938;-88
2022/01/19 14:58:11;;;;;;;;;;;8.30;99.90;;;;;;5099056;28;20287;-88
2022/01/19 15:00:39;;;;;;;;;;;8.30;99.90;;;;;;5107598;28;20885;-87
2022/01/19 15:03:06;;;;;;;;;;;8.30;99.90;;;;;;5106550;28;19940;-88
2022/01/19 15:05:33;;;;;;;;;;;8.20;99.90;;;;;;5106614;28;19939;-87
2022/01/19 15:08:00;;;;;;;;;;;8.30;99.90;;;;;;5095145;28;19928;-88
2022/01/19 15:10:30;;;;;;;;;;;8.10;99.90;;;;;;5107464;28;19999;-87
2022/01/19 15:12:57;;;;;;;;;;;8.40;99.90;;;;;;5103955;28;20023;-87
2022/01/19 15:15:26;;;;;;;;;;;8.20;99.90;;;;;;5108445;28;19973;-87
2022/01/19 15:17:53;;;;;;;;;;;8.10;99.90;;;;;;5105227;28;19935;-87
2022/01/19 15:20:20;;;;;;;;;;;8.10;99.90;;;;;;5107338;28;20297;-88
2022/01/19 15:22:47;;;;;;;;;;;8.10;99.90;;;;;;5107466;28;19928;-86
2022/01/19 15:25:15;;;;;;;;;;;8.00;99.90;;;;;;5107265;28;19924;-87
2022/01/19 15:27:45;;;;;;;;;;;8.20;99.90;;;;;;5094561;28;19931;-88
2022/01/19 15:30:12;;;;;;;;;;;8.10;99.90;;;;;;5098095;27;20362;-88
2022/01/19 15:32:39;;;;;;;;;;;7.90;99.90;;;;;;5106324;28;19924;-87
2022/01/19 15:35:08;;;;;;;;;;;8.00;99.90;;;;;;5098255;28;19931;-86
2022/01/19 15:37:35;;;;;;;;;;;8.10;99.90;;;;;;5102842;28;20643;-87
2022/01/19 15:40:03;;;;;;;;;;;7.90;99.90;;;;;;5102488;28;19924;-87
2022/01/19 15:42:30;;;;;;;;;;;7.80;99.90;;;;;;5093562;28;19987;-87
2022/01/19 15:45:01;;;;;;;;;;;7.60;99.90;;;;;;5081696;28;19942;-88
2022/01/19 15:47:28;;;;;;;;;;;8.00;99.90;;;;;;5077618;28;19973;-87